Time;durP1;ratioP1;P1;durP2;ratioP2;P2;SDS_P1;SDS_P2;PMS_P1;PMS_P2;Temp;Humidity;BMP_temperature;BMP_pressure;BME280_temperature;BME280_humidity;BME280_pressure;Samples;Min_cycle;Max_cycle;Signal;HPM_P1;HPM_P2
2023/03/24 00:00:13;;;;;;;5.63;4.03;;;;;;;11.00;100.00;95750.16;5030095;27;102629;-62
2023/03/24 00:02:41;;;;;;;4.03;3.63;;;;;;;11.08;100.00;95749.63;5030764;27;101783;-62
2023/03/24 00:05:09;;;;;;;5.10;3.83;;;;;;;11.07;100.00;95747.22;5029587;28;103544;-62
2023/03/24 00:07:37;;;;;;;4.67;3.87;;;;;;;11.04;100.00;95740.56;5031928;28;103810;-62
2023/03/24 00:10:07;;;;;;;4.47;3.90;;;;;;;10.92;100.00;95734.75;5029500;28;105360;-62
2023/03/24 00:12:37;;;;;;;4.67;4.13;;;;;;;10.83;100.00;95722.22;5028626;28;105836;-62
2023/03/24 00:15:10;;;;;;;4.57;3.80;;;;;;;10.75;100.00;95722.78;5030667;28;101753;-62
2023/03/24 00:17:38;;;;;;;4.67;4.07;;;;;;;10.67;100.00;95716.13;5030163;27;102198;-62
2023/03/24 00:20:13;;;;;;;4.83;3.97;;;;;;;10.76;100.00;95719.06;5029823;27;102772;-62
2023/03/24 00:22:41;;;;;;;6.67;4.50;;;;;;;10.80;100.00;95712.91;5029015;28;101832;-62
2023/03/24 00:25:10;;;;;;;4.30;3.90;;;;;;;10.73;100.00;95711.59;5028726;28;105316;-62
2023/03/24 00:27:37;;;;;;;4.67;3.50;;;;;;;10.67;100.00;95699.38;5028354;28;106007;-62
2023/03/24 00:30:10;;;;;;;5.27;4.43;;;;;;;10.67;100.00;95694.06;5032610;28;101831;-62
2023/03/24 00:32:37;;;;;;;5.17;4.50;;;;;;;10.37;100.00;95688.75;5028509;28;104388;-62
2023/03/24 00:35:07;;;;;;;4.10;3.43;;;;;;;10.24;100.00;95691.97;5028529;28;101917;-62
2023/03/24 00:37:36;;;;;;;6.23;4.03;;;;;;;10.37;100.00;95680.78;5028787;28;105246;-62
2023/03/24 00:40:05;;;;;;;5.13;3.90;;;;;;;10.37;100.00;95680.78;5028333;28;105311;-62
2023/03/24 00:42:34;;;;;;;5.70;4.00;;;;;;;10.45;100.00;95672.28;5028831;28;101844;-62
2023/03/24 00:45:02;;;;;;;4.43;4.00;;;;;;;10.52;100.00;95672.81;5028954;28;104893;-62
2023/03/24 00:47:35;;;;;;;5.53;4.13;;;;;;;10.54;100.00;95671.50;5028136;28;106075;-62
2023/03/24 00:50:05;;;;;;;4.57;3.90;;;;;;;10.49;100.00;95660.03;5029978;28;102196;-62
2023/03/24 00:52:33;;;;;;;4.93;3.90;;;;;;;10.50;100.00;95664.28;5030268;27;105803;-62
2023/03/24 00:55:02;;;;;;;5.20;4.00;;;;;;;10.42;100.00;95656.88;5028614;28;102022;-62
2023/03/24 00:57:33;;;;;;;7.57;4.33;;;;;;;10.43;100.00;95656.63;5028747;28;103770;-62
2023/03/24 01:00:08;;;;;;;6.03;4.13;;;;;;;10.41;100.00;95655.28;5027754;28;105660;-62
2023/03/24 01:02:36;;;;;;;5.27;3.97;;;;;;;10.32;100.00;95646.25;5028573;28;102363;-62
2023/03/24 01:05:04;;;;;;;4.40;4.00;;;;;;;10.40;100.00;95637.72;5028457;28;105632;-62
2023/03/24 01:07:32;;;;;;;4.90;3.90;;;;;;;10.41;100.00;95639.34;5027928;28;105408;-62
2023/03/24 01:10:00;;;;;;;3.90;3.50;;;;;;;10.33;100.00;95631.88;5029380;27;101905;-62
2023/03/24 01:12:30;;;;;;;4.60;3.57;;;;;;;10.39;100.00;95620.19;5028537;28;105320;-62
2023/03/24 01:14:58;;;;;;;5.73;3.10;;;;;;;10.33;100.00;95600.00;5032316;28;101750;-62
2023/03/24 01:17:25;;;;;;;4.13;3.47;;;;;;;10.24;100.00;95614.91;5028340;28;104781;-62
2023/03/24 01:19:54;;;;;;;4.00;3.20;;;;;;;10.23;100.00;95600.81;5027497;28;104956;-62
2023/03/24 01:22:22;;;;;;;3.63;3.30;;;;;;;10.25;100.00;95603.97;5029550;27;102422;-62
2023/03/24 01:24:52;;;;;;;4.03;3.23;;;;;;;10.09;100.00;95601.63;5027968;28;105115;-62
2023/03/24 01:27:19;;;;;;;3.70;3.40;;;;;;;10.18;100.00;95605.31;5027941;28;105724;-62
2023/03/24 01:29:47;;;;;;;3.97;3.63;;;;;;;10.19;100.00;95598.97;5029866;27;101794;-62
2023/03/24 01:32:14;;;;;;;3.97;3.57;;;;;;;10.12;100.00;95595.75;5029498;27;102878;-62
2023/03/24 01:34:43;;;;;;;3.10;2.90;;;;;;;10.04;100.00;95596.31;5028774;28;102556;-62
2023/03/24 01:37:12;;;;;;;3.93;2.90;;;;;;;9.92;100.00;95593.88;5031886;28;102149;-62
2023/03/24 01:39:39;;;;;;;3.37;2.90;;;;;;;9.98;100.00;95582.19;5027414;28;105475;-62
2023/03/24 01:42:06;;;;;;;3.63;3.33;;;;;;;10.01;100.00;95586.16;5028015;28;102278;-62
2023/03/24 01:44:37;;;;;;;3.70;3.40;;;;;;;9.98;100.00;95581.41;5029353;27;102272;-62
2023/03/24 01:47:08;;;;;;;3.57;3.27;;;;;;;9.97;100.00;95582.47;5028941;28;102931;-62
2023/03/24 01:49:38;;;;;;;2.97;2.77;;;;;;;9.95;100.00;95582.72;5028110;28;102150;-62
2023/03/24 01:52:14;;;;;;;3.53;3.20;;;;;;;9.87;100.00;95577.94;5028241;28;105145;-62
2023/03/24 01:54:47;;;;;;;3.67;3.37;;;;;;;9.71;100.00;95570.22;5027418;28;105263;-62
2023/03/24 01:57:20;;;;;;;4.77;3.60;;;;;;;9.68;100.00;95576.06;5031411;28;101767;-62
2023/03/24 01:59:51;;;;;;;3.40;3.10;;;;;;;9.60;100.00;95565.97;5027412;28;105451;-62
2023/03/24 02:02:41;;;;;;;4.70;3.70;;;;;;;9.63;100.00;95573.41;5029238;27;101902;-62
2023/03/24 02:05:12;;;;;;;5.40;3.70;;;;;;;9.71;100.00;95572.88;5030244;27;103703;-62
2023/03/24 02:07:48;;;;;;;3.87;3.47;;;;;;;9.76;100.00;95570.25;5030728;28;104770;-62
2023/03/24 02:10:18;;;;;;;3.30;3.00;;;;;;;9.78;100.00;95562.78;5031423;28;101783;-62
2023/03/24 02:12:46;;;;;;;3.57;3.13;;;;;;;9.74;100.00;95567.03;5031369;28;105015;-62
2023/03/24 02:15:17;;;;;;;3.40;3.10;;;;;;;9.76;100.00;95564.94;5030176;28;105364;-62
2023/03/24 02:17:59;;;;;;;3.50;3.20;;;;;;;9.76;100.00;95567.59;5030801;28;101877;-62
2023/03/24 02:21:13;;;;;;;3.37;3.07;;;;;;;9.79;100.00;95565.19;5034057;28;105441;-62
2023/03/24 02:24:21;;;;;;;3.50;3.20;;;;;;;9.78;100.00;95566.25;5030898;28;101860;-62
2023/03/24 02:27:00;;;;;;;3.33;3.03;;;;;;;9.78;100.00;95568.91;5031035;28;104925;-62
2023/03/24 02:30:11;;;;;;;3.87;2.97;;;;;;;9.79;100.00;95567.03;5031996;27;103035;-62
2023/03/24 02:33:12;;;;;;;3.70;3.20;;;;;;;9.83;100.00;95565.47;5030900;28;101733;-62
2023/03/24 02:36:15;;;;;;;3.23;2.90;;;;;;;9.83;100.00;95568.13;5031073;28;104795;-62
2023/03/24 02:39:12;;;;;;;3.03;2.83;;;;;;;9.80;100.00;95569.44;5007407;28;105547;-62
2023/03/24 02:41:47;;;;;;;3.17;2.87;;;;;;;9.80;100.00;95565.97;5027711;27;101784;-62
2023/03/24 02:44:21;;;;;;;4.03;3.10;;;;;;;9.84;100.00;95570.50;5030954;28;105037;-62
2023/03/24 02:46:56;;;;;;;4.53;3.10;;;;;;;9.99;100.00;95578.47;5033533;28;105833;-62
2023/03/24 02:49:31;;;;;;;3.57;3.10;;;;;;;10.09;100.00;95567.88;5030722;28;105188;-62
2023/03/24 02:52:04;;;;;;;3.80;2.87;;;;;;;10.08;100.00;95570.81;5031498;27;102803;-62
2023/03/24 02:54:40;;;;;;;3.83;3.43;;;;;;;10.10;100.00;95571.31;5030340;28;101949;-62
2023/03/24 02:57:13;;;;;;;3.60;3.00;;;;;;;10.18;100.00;95568.13;5030680;28;105090;-62
2023/03/24 03:00:08;;;;;;;4.97;3.93;;;;;;;10.19;100.00;95567.84;5030795;28;103401;-62
2023/03/24 03:02:59;;;;;;;5.73;3.20;;;;;;;10.22;100.00;95566.53;5028764;28;101719;-62
2023/03/24 03:05:31;;;;;;;3.70;3.00;;;;;;;10.27;100.00;95569.19;5030529;28;105152;-62
2023/03/24 03:08:02;;;;;;;3.30;2.87;;;;;;;10.31;100.00;95576.34;5031345;27;103044;-62
2023/03/24 03:10:32;;;;;;;3.10;2.80;;;;;;;10.33;100.00;95578.75;5033966;28;101969;-62
2023/03/24 03:13:06;;;;;;;7.30;3.30;;;;;;;10.35;100.00;95582.72;5030632;27;102712;-62
2023/03/24 03:15:37;;;;;;;3.80;3.30;;;;;;;10.39;100.00;95582.97;5028782;27;101952;-62
2023/03/24 03:18:09;;;;;;;4.00;3.33;;;;;;;10.42;100.00;95582.47;5029938;28;105233;-62
2023/03/24 03:20:49;;;;;;;4.83;3.40;;;;;;;10.45;100.00;95581.91;5029688;28;105826;-62
2023/03/24 03:23:23;;;;;;;4.43;4.03;;;;;;;10.60;100.00;95587.19;5029937;28;102152;-62
2023/03/24 03:25:55;;;;;;;4.43;4.03;;;;;;;10.71;100.00;95580.78;5030105;28;105238;-62
2023/03/24 03:28:28;;;;;;;4.50;4.10;;;;;;;10.75;100.00;95579.19;5029344;28;105934;-62
2023/03/24 03:30:59;;;;;;;4.27;3.87;;;;;;;10.76;100.00;95592.22;5030011;28;101913;-62
2023/03/24 03:33:35;;;;;;;5.33;4.17;;;;;;;10.74;100.00;95596.22;5033002;28;104804;-62
2023/03/24 03:36:08;;;;;;;5.63;4.63;;;;;;;10.66;100.00;95604.72;5029770;28;101899;-62
2023/03/24 03:38:45;;;;;;;4.60;4.20;;;;;;;10.56;100.00;95599.44;5029610;28;105294;-62
2023/03/24 03:41:13;;;;;;;5.53;4.53;;;;;;;10.63;100.00;95605.28;5029330;28;105476;-62
2023/03/24 03:43:42;;;;;;;4.87;4.10;;;;;;;10.65;100.00;95609.25;5029797;28;102139;-62
2023/03/24 03:46:11;;;;;;;4.90;4.07;;;;;;;10.81;100.00;95613.47;5029963;28;105246;-62
2023/03/24 03:48:40;;;;;;;5.50;4.47;;;;;;;10.91;100.00;95608.09;5028746;28;105103;-62
2023/03/24 03:51:08;;;;;;;5.70;4.37;;;;;;;10.91;100.00;95617.97;5029498;28;101946;-62
2023/03/24 03:53:42;;;;;;;7.13;4.33;;;;;;;10.89;100.00;95620.09;5029732;28;105714;-62
2023/03/24 03:56:10;;;;;;;4.83;4.20;;;;;;;10.89;100.00;95620.09;5032262;27;101814;-62
2023/03/24 03:58:47;;;;;;;4.87;3.90;;;;;;;10.89;100.00;95614.75;5029319;28;103480;-62
2023/03/24 04:01:18;;;;;;;5.00;4.30;;;;;;;10.88;100.00;95605.19;5030092;27;102509;-62
2023/03/24 04:04:32;;;;;;;4.97;3.87;;;;;;;10.83;100.00;95603.34;5029673;28;101834;-62
2023/03/24 04:07:37;;;;;;;3.87;3.57;;;;;;;10.77;100.00;95600.97;5029532;28;103907;-62
2023/03/24 04:10:50;;;;;;;6.43;3.73;;;;;;;10.78;100.00;95597.25;5028735;28;105911;-62
2023/03/24 04:13:30;;;;;;;4.70;4.13;;;;;;;10.78;100.00;95598.06;5028959;28;102151;-62
2023/03/24 04:16:38;;;;;;;4.63;4.17;;;;;;;10.78;100.00;95599.91;5028859;28;102715;-62
2023/03/24 04:19:26;;;;;;;5.53;4.10;;;;;;;10.80;100.00;95600.44;5031663;28;105343;-62
2023/03/24 04:22:05;;;;;;;5.87;4.17;;;;;;;10.81;100.00;95594.06;5028997;28;105817;-62
2023/03/24 04:24:43;;;;;;;5.40;4.40;;;;;;;10.79;100.00;95593.53;5028349;28;105456;-62
2023/03/24 04:27:20;;;;;;;4.87;3.93;;;;;;;10.79;100.00;95596.19;5028493;27;102344;-62
2023/03/24 04:29:55;;;;;;;4.93;3.80;;;;;;;10.82;100.00;95595.66;5029315;28;105171;-62
2023/03/24 04:32:35;;;;;;;5.43;4.10;;;;;;;10.84;100.00;95596.19;5028398;28;104308;-62
2023/03/24 04:35:06;;;;;;;4.30;3.90;;;;;;;10.81;100.00;95599.38;5028910;28;102264;-62
2023/03/24 04:38:07;;;;;;;4.13;3.83;;;;;;;10.79;100.00;95583.69;5029426;27;103865;-62
2023/03/24 04:40:40;;;;;;;4.83;4.30;;;;;;;10.83;100.00;95583.94;5028227;28;105027;-62
2023/03/24 04:43:12;;;;;;;4.87;4.40;;;;;;;10.82;100.00;95580.50;5032209;28;101779;-62
2023/03/24 04:45:40;;;;;;;5.20;4.17;;;;;;;10.84;100.00;95572.25;5028297;28;105429;-62
2023/03/24 04:48:29;;;;;;;5.57;3.93;;;;;;;10.85;100.00;95568.53;5029713;28;102477;-62
2023/03/24 04:51:16;;;;;;;7.30;4.33;;;;;;;10.85;100.00;95573.84;5028717;28;104881;-62
2023/03/24 04:54:06;;;;;;;4.53;4.13;;;;;;;10.84;100.00;95562.41;5023343;27;103982;-62
2023/03/24 04:56:44;;;;;;;4.60;4.20;;;;;;;10.82;100.00;95561.88;5028766;28;102019;-62
2023/03/24 04:59:33;;;;;;;4.93;4.20;;;;;;;10.82;100.00;95547.78;5028852;28;104964;-62
2023/03/24 05:02:03;;;;;;;4.60;4.20;;;;;;;10.80;100.00;95547.25;5028478;28;105553;-62
2023/03/24 05:04:52;;;;;;;5.37;4.83;;;;;;;10.60;100.00;95549.97;5029178;28;101793;-62
2023/03/24 05:07:34;;;;;;;5.63;5.10;;;;;;;10.51;100.00;95544.41;5032026;28;104851;-62
2023/03/24 05:10:06;;;;;;;5.37;4.80;;;;;;;10.44;100.00;95535.13;5029028;28;101834;-62
2023/03/24 05:12:39;;;;;;;6.33;4.93;;;;;;;10.43;100.00;95526.38;5029134;28;105190;-62
2023/03/24 05:15:25;;;;;;;4.90;4.40;;;;;;;10.44;100.00;95522.66;5027526;28;102195;-62
2023/03/24 05:17:57;;;;;;;6.03;4.43;;;;;;;10.47;100.00;95518.66;5028813;28;101888;-62
2023/03/24 05:20:28;;;;;;;5.77;4.23;;;;;;;10.49;100.00;95508.53;5028757;28;103685;-62
2023/03/24 05:23:20;;;;;;;4.23;3.80;;;;;;;10.45;100.00;95512.78;5028152;28;103794;-62
2023/03/24 05:25:48;;;;;;;4.70;4.27;;;;;;;10.36;100.00;95520.53;5063057;27;101843;-62
2023/03/24 05:28:16;;;;;;;6.17;4.80;;;;;;;10.39;100.00;95524.50;5062868;27;105417;-62
2023/03/24 05:30:44;;;;;;;4.70;4.30;;;;;;;10.48;100.00;95521.03;5032642;27;102279;-62
2023/03/24 05:33:24;;;;;;;4.50;4.10;;;;;;;10.51;100.00;95519.69;5028675;28;105168;-62
2023/03/24 05:35:52;;;;;;;4.10;3.80;;;;;;;10.52;100.00;95510.66;5028134;28;104123;-62
2023/03/24 05:38:19;;;;;;;4.97;3.77;;;;;;;10.55;100.00;95518.09;5028195;27;101859;-62
2023/03/24 05:40:50;;;;;;;4.60;4.13;;;;;;;10.55;100.00;95512.78;5031371;28;104384;-62
2023/03/24 05:43:18;;;;;;;4.67;3.97;;;;;;;10.59;100.00;95514.63;5031022;28;105472;-62
2023/03/24 05:45:58;;;;;;;4.23;3.93;;;;;;;10.37;100.00;95526.66;5031647;28;101816;-62
2023/03/24 05:48:30;;;;;;;4.50;4.10;;;;;;;10.42;100.00;95521.31;5031521;28;105248;-62
2023/03/24 05:51:17;;;;;;;5.20;4.40;;;;;;;10.51;100.00;95519.69;5031011;28;105579;-62
2023/03/24 05:53:45;;;;;;;5.33;4.20;;;;;;;10.41;100.00;95533.81;5034723;28;101884;-62
2023/03/24 05:56:15;;;;;;;5.07;4.27;;;;;;;10.45;100.00;95539.38;5030483;28;105413;-62
2023/03/24 05:59:03;;;;;;;4.30;3.90;;;;;;;10.69;100.00;95529.75;5031300;28;102014;-62
2023/03/24 06:01:55;;;;;;;5.17;4.33;;;;;;;10.77;100.00;95518.53;5032611;28;103570;-62
2023/03/24 06:04:44;;;;;;;4.97;4.50;;;;;;;10.78;100.00;95517.47;5029283;28;102231;-62
2023/03/24 06:07:16;;;;;;;5.27;4.77;;;;;;;10.91;100.00;95523.00;5031254;28;102268;-62
2023/03/24 06:09:45;;;;;;;7.33;5.20;;;;;;;10.95;100.00;95533.91;5031289;28;105561;-62
2023/03/24 06:12:14;;;;;;;6.20;5.70;;;;;;;11.02;100.00;95523.75;5030867;28;105290;-62
2023/03/24 06:14:51;;;;;;;7.13;6.00;;;;;;;11.15;100.00;95529.28;5034489;28;101899;-62
2023/03/24 06:17:20;;;;;;;6.63;5.70;;;;;;;11.32;100.00;95515.59;5030418;28;105549;-62
2023/03/24 06:19:49;;;;;;;6.60;6.00;;;;;;;11.37;100.00;95516.38;5014364;28;101989;-62
2023/03/24 06:22:37;;;;;;;6.93;6.23;;;;;;;11.47;100.00;95513.66;5009169;28;102048;-62
2023/03/24 06:25:09;;;;;;;8.87;5.97;;;;;;;11.43;100.00;95517.13;5010009;28;104628;-62
2023/03/24 06:27:37;;;;;;;5.93;5.33;;;;;;;11.43;100.00;95515.25;5010943;28;101903;-62
2023/03/24 06:30:07;;;;;;;6.87;5.70;;;;;;;11.60;100.00;95513.03;5044510;27;105111;-62
2023/03/24 06:32:34;;;;;;;6.27;5.60;;;;;;;11.71;100.00;95524.41;5010068;28;105505;-62
2023/03/24 06:35:02;;;;;;;11.17;7.60;;;;;;;11.79;100.00;95534.47;5010756;28;101970;-62
2023/03/24 06:37:37;;;;;;;9.10;7.37;;;;;;;11.87;100.00;95533.88;5013343;28;104399;-62
2023/03/24 06:40:09;;;;;;;13.00;9.97;;;;;;;11.92;100.00;95529.31;5010559;28;101794;-62
2023/03/24 06:42:41;;;;;;;9.93;8.33;;;;;;;11.98;100.00;95528.19;5009524;28;105459;-62
2023/03/24 06:45:09;;;;;;;8.20;7.10;;;;;;;12.02;100.00;95531.91;5010182;28;105512;-62
2023/03/24 06:47:37;;;;;;;7.87;7.07;;;;;;;12.18;100.00;95529.88;5010396;28;102565;-62
2023/03/24 06:50:05;;;;;;;9.80;7.57;;;;;;;12.25;100.00;95533.00;5010589;28;103881;-62
2023/03/24 06:52:33;;;;;;;9.37;7.93;;;;;;;12.27;100.00;95538.88;5009735;28;105473;-62
2023/03/24 06:55:01;;;;;;;7.93;7.13;;;;;;;12.38;100.00;95532.38;5010206;28;101968;-62
2023/03/24 06:57:30;;;;;;;8.67;7.47;;;;;;;12.50;100.00;95532.75;5010313;28;105387;-62
2023/03/24 07:00:16;;;;;;;9.03;7.90;;;;;;;12.56;100.00;95531.63;5011453;28;102305;-62
2023/03/24 07:02:57;;;;;;;7.67;6.63;;;;;;;12.67;100.00;95525.91;5010326;28;104961;-62
2023/03/24 07:05:24;;;;;;;7.03;6.33;;;;;;;12.81;100.00;95515.34;5043341;27;105402;-62
2023/03/24 07:07:50;;;;;;;10.60;7.73;;;;;;;12.87;100.00;95519.56;5010203;28;101922;-62
2023/03/24 07:10:35;;;;;;;8.37;7.17;;;;;;;12.90;100.00;95509.09;5043756;27;104562;-62
2023/03/24 07:13:03;;;;;;;8.10;6.73;;;;;;;12.99;100.00;95499.41;5009506;28;105032;-62
2023/03/24 07:15:33;;;;;;;6.87;6.20;;;;;;;13.00;100.00;95502.88;5043894;27;102294;-62
2023/03/24 07:18:00;;;;;;;11.43;8.27;;;;;;;13.10;100.00;95506.22;5043439;27;105638;-63
2023/03/24 07:20:47;;;;;;;9.13;7.27;;;;;;;13.12;100.00;95508.56;5009975;28;103540;-62
2023/03/24 07:23:16;;;;;;;7.57;6.77;;;;;;;13.19;100.00;95509.03;5013272;28;102014;-62
2023/03/24 07:26:17;;;;;;;6.60;5.90;;;;;;;13.32;100.00;95502.97;5006796;28;103620;-62
2023/03/24 07:28:47;;;;;;;6.27;5.43;;;;;;;13.40;100.00;95502.34;5008544;28;102129;-62
2023/03/24 07:31:40;;;;;;;5.70;5.03;;;;;;;13.40;100.00;95503.09;5008440;28;103382;-62
2023/03/24 07:34:11;;;;;;;4.93;4.40;;;;;;;13.48;100.00;95501.66;5009032;28;105797;-62
2023/03/24 07:36:39;;;;;;;5.87;4.37;;;;;;;13.50;100.00;95496.81;5009593;28;101877;-62
2023/03/24 07:39:12;;;;;;;5.40;4.57;;;;;;;13.53;100.00;95489.03;5043363;27;104943;-62
2023/03/24 07:41:41;;;;;;;6.67;4.77;;;;;;;13.66;100.00;95484.81;5008828;28;105340;-62
2023/03/24 07:44:15;;;;;;;8.70;5.20;;;;;;;13.70;100.00;95470.63;5009714;28;101807;-62
2023/03/24 07:46:49;;;;;;;5.57;4.97;;;;;;;13.74;100.00;95484.19;5046382;27;104843;-62
2023/03/24 07:49:17;;;;;;;4.77;4.20;;;;;;;13.71;100.00;95479.41;5009862;28;102064;-62
2023/03/24 07:51:47;;;;;;;5.53;4.70;;;;;;;13.27;100.00;95481.69;5043049;27;104922;-62
2023/03/24 07:54:23;;;;;;;7.30;4.73;;;;;;;13.29;100.00;95487.50;5008685;28;105435;-62
2023/03/24 07:56:54;;;;;;;8.50;5.63;;;;;;;13.33;100.00;95501.88;5009549;28;102136;-62
2023/03/24 07:59:20;;;;;;;5.83;5.00;;;;;;;13.22;100.00;95500.44;5009508;28;103452;-62
2023/03/24 08:01:50;;;;;;;5.77;5.00;;;;;;;13.24;100.00;95506.28;5009193;28;102560;-63
2023/03/24 08:04:21;;;;;;;7.67;5.33;;;;;;;13.31;100.00;95512.06;5009299;28;101773;-62
2023/03/24 08:06:59;;;;;;;6.90;5.20;;;;;;;13.29;100.00;95515.00;5009471;28;104452;-62
2023/03/24 08:09:26;;;;;;;6.53;4.70;;;;;;;13.27;100.00;95519.06;5045943;27;105719;-63
2023/03/24 08:11:55;;;;;;;6.30;5.20;;;;;;;13.25;100.00;95526.56;5010729;28;102300;-63
2023/03/24 08:14:22;;;;;;;6.33;4.87;;;;;;;13.23;100.00;95534.06;5008715;28;104736;-63
2023/03/24 08:16:49;;;;;;;6.23;5.30;;;;;;;13.19;100.00;95536.50;5042662;27;101770;-63
2023/03/24 08:19:15;;;;;;;6.40;5.37;;;;;;;13.18;100.00;95542.13;5009679;28;103601;-62
2023/03/24 08:21:43;;;;;;;6.17;5.60;;;;;;;13.09;100.00;95554.53;5042167;27;104163;-63
2023/03/24 08:24:10;;;;;;;5.90;5.30;;;;;;;12.96;100.00;95548.00;5008662;28;101919;-62
2023/03/24 08:26:36;;;;;;;6.63;5.50;;;;;;;13.06;100.00;95541.75;5009164;28;104819;-63
2023/03/24 08:29:05;;;;;;;7.50;6.20;;;;;;;13.04;100.00;95557.25;5011698;28;105123;-63
2023/03/24 08:31:33;;;;;;;6.73;5.80;;;;;;;13.05;100.00;95573.00;5009077;28;105382;-63
2023/03/24 08:33:59;;;;;;;6.00;5.47;;;;;;;13.04;100.00;95558.03;5008373;28;105510;-62
2023/03/24 08:36:27;;;;;;;7.20;5.47;;;;;;;13.11;100.00;95547.84;5008785;28;102078;-62
2023/03/24 08:38:54;;;;;;;6.57;5.60;;;;;;;13.33;100.00;95539.25;5008775;28;105162;-62
2023/03/24 08:41:33;;;;;;;6.00;5.40;;;;;;;13.61;100.00;95541.00;5041911;27;105131;-62
2023/03/24 08:44:02;;;;;;;11.27;8.33;;;;;;;13.27;100.00;95573.25;5008788;28;102063;-62
2023/03/24 08:46:30;;;;;;;9.00;6.10;;;;;;;13.20;100.00;95586.13;5008322;28;105903;-62
2023/03/24 08:48:57;;;;;;;7.10;6.10;;;;;;;13.19;100.00;95584.56;5007964;28;104134;-62
2023/03/24 08:51:25;;;;;;;6.43;5.83;;;;;;;13.31;100.00;95586.81;5012160;28;101902;-62
2023/03/24 08:53:52;;;;;;;7.33;5.80;;;;;;;13.35;100.00;95598.53;5007806;28;105349;-63
2023/03/24 08:56:20;;;;;;;6.73;6.03;;;;;;;13.32;100.00;95612.44;5008858;28;101751;-63
2023/03/24 08:58:47;;;;;;;6.80;6.10;;;;;;;13.27;100.00;95615.97;5009720;28;102611;-62
2023/03/24 09:01:14;;;;;;;6.23;5.70;;;;;;;13.35;100.00;95609.22;5008269;28;104091;-62
2023/03/24 09:03:43;;;;;;;9.20;6.50;;;;;;;13.46;100.00;95597.31;5008616;28;101902;-62
2023/03/24 09:06:11;;;;;;;7.00;6.40;;;;;;;13.55;100.00;95609.75;5008691;28;105247;-62
2023/03/24 09:08:38;;;;;;;8.67;6.50;;;;;;;13.66;100.00;95627.22;5007494;28;105830;-63
2023/03/24 09:11:05;;;;;;;7.67;6.40;;;;;;;13.75;100.00;95654.91;5008514;28;102088;-63
2023/03/24 09:13:32;;;;;;;8.80;6.53;;;;;;;13.79;100.00;95663.13;5011392;28;105227;-62
2023/03/24 09:16:01;;;;;;;9.30;6.13;;;;;;;13.82;100.00;95662.53;5011957;28;101959;-63
2023/03/24 09:18:29;;;;;;;8.90;6.53;;;;;;;13.93;100.00;95653.31;5011688;28;105332;-63
2023/03/24 09:20:57;;;;;;;7.43;6.00;;;;;;;14.04;100.00;95657.41;5011429;28;105482;-63
2023/03/24 09:23:24;;;;;;;7.60;5.90;;;;;;;14.14;100.00;95658.09;5011445;28;101995;-63
2023/03/24 09:25:52;;;;;;;8.17;6.10;;;;;;;14.29;100.00;95657.88;5045628;27;105467;-63
2023/03/24 09:28:19;;;;;;;7.53;6.30;;;;;;;14.32;100.00;95653.81;5012601;28;102490;-63
2023/03/24 09:30:46;;;;;;;7.70;6.10;;;;;;;14.67;100.00;95646.00;5011682;28;101763;-63
2023/03/24 09:33:14;;;;;;;7.37;6.67;;;;;;;14.69;100.00;95648.41;5011587;28;104049;-63
2023/03/24 09:35:41;;;;;;;9.10;6.50;;;;;;;14.80;100.00;95660.53;5014426;28;105630;-63
2023/03/24 09:38:11;;;;;;;8.37;7.47;;;;;;;14.96;100.00;95664.53;5011632;28;105049;-63
2023/03/24 09:40:39;;;;;;;8.53;7.10;;;;;;;14.97;100.00;95663.44;5010855;28;105383;-62
2023/03/24 09:43:14;;;;;;;7.70;6.77;;;;;;;15.02;100.00;95666.03;5045247;27;101873;-62
2023/03/24 09:45:48;;;;;;;7.40;6.70;;;;;;;15.12;100.00;95658.63;5010749;28;104116;-61
2023/03/24 09:48:26;;;;;;;8.27;6.20;;;;;;;15.14;100.00;95666.34;5009292;28;105090;-61
2023/03/24 09:50:58;;;;;;;7.47;6.77;;;;;;;15.09;100.00;95656.50;5010030;28;102048;-61
2023/03/24 09:53:34;;;;;;;7.27;6.23;;;;;;;15.14;100.00;95666.34;5008918;28;105530;-62
2023/03/24 09:56:06;;;;;;;7.37;6.67;;;;;;;15.20;100.00;95657.13;5007024;28;104427;-61
2023/03/24 09:58:34;;;;;;;8.63;6.80;;;;;;;15.23;100.00;95664.56;5014690;28;101932;-61
2023/03/24 10:01:01;;;;;;;9.50;6.47;;;;;;;15.30;100.00;95668.44;5008635;28;105439;-62
2023/03/24 10:03:28;;;;;;;8.83;7.60;;;;;;;15.29;100.00;95674.09;5009476;28;102091;-61
2023/03/24 10:06:00;;;;;;;8.17;7.10;;;;;;;15.40;100.00;95679.00;5007056;28;104645;-62
2023/03/24 10:08:35;;;;;;;9.13;7.90;;;;;;;15.48;100.00;95672.94;5008828;28;105330;-61
2023/03/24 10:11:05;;;;;;;8.50;7.70;;;;;;;15.59;100.00;95681.59;5007657;28;101904;-61
2023/03/24 10:13:43;;;;;;;7.97;7.10;;;;;;;15.60;100.00;95689.31;5009161;28;105596;-61
2023/03/24 10:16:19;;;;;;;8.00;7.20;;;;;;;15.22;100.00;95690.56;5007300;28;101929;-61
2023/03/24 10:18:52;;;;;;;8.67;6.90;;;;;;;15.30;100.00;95697.91;5010160;28;101877;-61
2023/03/24 10:21:21;;;;;;;8.37;7.57;;;;;;;15.35;100.00;95692.50;5012651;28;105512;-61
2023/03/24 10:23:57;;;;;;;7.67;6.97;;;;;;;15.39;100.00;95690.81;5010224;28;102608;-61
2023/03/24 10:26:34;;;;;;;9.33;6.77;;;;;;;15.40;100.00;95691.59;5010293;28;102922;-61
2023/03/24 10:29:17;;;;;;;6.53;5.93;;;;;;;15.35;100.00;95699.72;5008329;28;105440;-61
2023/03/24 10:31:48;;;;;;;7.27;6.10;;;;;;;15.32;100.00;95705.66;4991488;28;102104;-61
2023/03/24 10:34:16;;;;;;;6.83;5.87;;;;;;;15.27;100.00;95705.75;5010704;28;102242;-61
2023/03/24 10:36:45;;;;;;;6.60;6.00;;;;;;;15.32;100.00;95714.47;5008304;28;105354;-61
2023/03/24 10:39:16;;;;;;;6.83;6.13;;;;;;;15.15;100.00;95716.94;5006238;28;102223;-61
2023/03/24 10:41:44;;;;;;;8.53;6.10;;;;;;;15.12;100.00;95724.75;5013313;28;102139;-61
2023/03/24 10:44:14;;;;;;;6.60;5.83;;;;;;;14.96;100.00;95734.13;5010837;28;101987;-61
2023/03/24 10:46:47;;;;;;;8.07;6.27;;;;;;;15.01;100.00;95726.03;5011093;28;102979;-61
2023/03/24 10:49:19;;;;;;;8.30;6.70;;;;;;;14.97;100.00;95741.06;5009426;28;105664;-62
2023/03/24 10:51:48;;;;;;;6.70;6.10;;;;;;;14.91;100.00;95742.25;5010100;28;102033;-61
2023/03/24 10:54:20;;;;;;;7.57;6.80;;;;;;;14.90;100.00;95746.03;5011176;28;102887;-61
2023/03/24 10:57:01;;;;;;;7.23;6.30;;;;;;;15.02;100.00;95749.03;5009456;28;105513;-61
2023/03/24 10:59:31;;;;;;;7.10;5.87;;;;;;;14.92;100.00;95738.47;5011723;28;102039;-62
2023/03/24 11:02:00;;;;;;;6.87;5.70;;;;;;;14.86;100.00;95748.50;5012175;28;102652;-62
2023/03/24 11:04:31;;;;;;;6.20;5.40;;;;;;;14.72;100.00;95750.31;5014843;28;102736;-62
2023/03/24 11:07:05;;;;;;;5.07;4.57;;;;;;;14.70;100.00;95744.47;5010573;28;105221;-62
2023/03/24 11:09:41;;;;;;;8.53;5.27;;;;;;;14.86;100.00;95742.31;5009998;28;104882;-61
2023/03/24 11:12:24;;;;;;;5.97;4.80;;;;;;;14.82;100.00;95738.66;5044440;27;102074;-61
2023/03/24 11:15:02;;;;;;;6.77;4.70;;;;;;;14.93;100.00;95745.44;5011438;28;102351;-62
2023/03/24 11:17:29;;;;;;;6.47;4.73;;;;;;;15.10;100.00;95743.03;5011192;28;102681;-62
2023/03/24 11:19:57;;;;;;;4.00;3.33;;;;;;;14.95;100.00;95748.63;5010007;28;101881;-62
2023/03/24 11:22:26;;;;;;;5.47;3.83;;;;;;;14.75;100.00;95754.28;5010109;28;105157;-62
2023/03/24 11:25:09;;;;;;;3.20;2.90;;;;;;;14.66;100.00;95762.19;5009865;28;102500;-61
2023/03/24 11:27:42;;;;;;;2.93;2.73;;;;;;;14.53;100.00;95754.09;5015039;28;101805;-61
2023/03/24 11:30:14;;;;;;;3.23;2.60;;;;;;;14.48;100.00;95754.97;5009540;28;105639;-61
2023/03/24 11:32:47;;;;;;;2.50;2.40;;;;;;;14.47;100.00;95755.25;5009553;28;102259;-62
2023/03/24 11:35:17;;;;;;;6.80;5.80;;;;;;;14.40;100.00;95754.81;5010061;28;104851;-62
2023/03/24 11:37:46;;;;;;;6.07;4.63;;;;;;;14.44;100.00;95758.53;5008351;28;105810;-62
2023/03/24 11:40:22;;;;;;;7.10;5.97;;;;;;;14.43;100.00;95757.72;5010505;28;102400;-62
2023/03/24 11:42:52;;;;;;;4.20;3.80;;;;;;;14.36;100.00;95761.81;5010796;28;102526;-61
2023/03/24 11:45:26;;;;;;;3.90;3.60;;;;;;;14.33;100.00;95759.75;5010149;28;102626;-62